createdAt,value
2023-02-09T00:01:57.341Z,25.57
2023-02-09T00:04:43.774Z,25.00
2023-02-09T00:07:30.407Z,26.73
2023-02-09T00:10:17.259Z,23.07
2023-02-09T00:13:22.025Z,26.53
2023-02-09T00:16:08.333Z,26.60
2023-02-09T00:18:57.122Z,23.03
2023-02-09T00:21:44.293Z,25.27
2023-02-09T00:24:30.633Z,26.37
2023-02-09T00:27:16.912Z,25.70
2023-02-09T00:30:03.640Z,23.27
2023-02-09T00:32:50.234Z,24.07
2023-02-09T00:35:40.586Z,26.80
2023-02-09T00:38:26.798Z,25.63
2023-02-09T00:41:13.866Z,24.20
2023-02-09T00:44:00.515Z,22.07
2023-02-09T00:46:48.917Z,21.47
2023-02-09T00:49:35.461Z,20.43
2023-02-09T00:52:22.089Z,27.20
2023-02-09T00:55:08.670Z,23.27
2023-02-09T00:57:55.330Z,27.53
2023-02-09T01:00:42.439Z,30.43
2023-02-09T01:03:28.880Z,21.87
2023-02-09T01:06:15.532Z,28.07
2023-02-09T01:09:02.260Z,24.43
2023-02-09T01:11:48.655Z,16.33
2023-02-09T01:14:34.986Z,25.40
2023-02-09T01:17:21.280Z,22.40
2023-02-09T01:20:10.141Z,21.63
2023-02-09T01:22:56.478Z,22.53
2023-02-09T01:25:42.604Z,24.03
2023-02-09T01:28:30.227Z,28.07
2023-02-09T01:31:31.880Z,26.37
2023-02-09T01:34:18.629Z,28.70
2023-02-09T01:37:08.541Z,21.67
2023-02-09T01:39:55.017Z,25.07
2023-02-09T01:42:41.404Z,16.83
2023-02-09T01:45:45.412Z,22.67
2023-02-09T01:48:31.748Z,21.97
2023-02-09T01:51:19.076Z,28.97
2023-02-09T01:54:14.660Z,25.27
2023-02-09T01:57:07.011Z,22.67
2023-02-09T01:59:58.655Z,29.17
2023-02-09T02:02:55.594Z,24.87
2023-02-09T02:05:46.144Z,22.27
2023-02-09T02:08:36.425Z,21.80
2023-02-09T02:11:24.131Z,26.27
2023-02-09T02:14:29.754Z,26.17
2023-02-09T02:17:42.449Z,18.47
2023-02-09T02:21:00.112Z,21.43
2023-02-09T02:24:15.770Z,18.83
2023-02-09T02:27:05.135Z,23.07
2023-02-09T02:30:05.995Z,18.40
2023-02-09T02:33:07.201Z,26.00
2023-02-09T02:36:00.204Z,25.80
2023-02-09T02:39:00.417Z,36.07
2023-02-09T02:42:14.720Z,33.60
2023-02-09T02:45:13.583Z,21.17
2023-02-09T02:48:15.289Z,24.20
2023-02-09T02:51:07.800Z,29.00
2023-02-09T02:53:57.870Z,25.00
2023-02-09T02:56:49.916Z,21.77
2023-02-09T02:59:46.193Z,23.37
2023-02-09T03:02:38.545Z,25.97
2023-02-09T03:05:27.391Z,23.97
2023-02-09T03:08:14.234Z,23.40
2023-02-09T03:11:00.299Z,19.63
2023-02-09T03:13:52.880Z,23.43
2023-02-09T03:16:58.229Z,23.73
2023-02-09T03:20:10.721Z,25.40
2023-02-09T03:23:12.824Z,23.13
2023-02-09T03:26:06.219Z,24.17
2023-02-09T03:28:56.385Z,27.47
2023-02-09T03:31:43.605Z,24.40
2023-02-09T03:34:30.150Z,26.00
2023-02-09T03:37:17.605Z,20.53
2023-02-09T03:40:04.354Z,29.30
2023-02-09T03:42:50.937Z,18.60
2023-02-09T03:45:37.801Z,22.27
2023-02-09T03:48:24.432Z,29.83
2023-02-09T03:51:10.874Z,22.37
2023-02-09T03:53:58.003Z,22.10
2023-02-09T03:56:44.405Z,22.13
2023-02-09T03:59:30.773Z,22.33
2023-02-09T04:02:17.005Z,24.43
2023-02-09T04:05:05.720Z,30.17
2023-02-09T04:07:52.483Z,20.70
2023-02-09T04:10:38.988Z,26.03
2023-02-09T04:13:26.114Z,30.03
2023-02-09T04:16:12.607Z,23.70
2023-02-09T04:18:59.012Z,24.87
2023-02-09T04:21:45.475Z,25.27
2023-02-09T04:24:31.942Z,25.13
2023-02-09T04:27:18.118Z,22.07
2023-02-09T04:30:04.614Z,26.53
2023-02-09T04:32:51.931Z,24.87
2023-02-09T04:35:38.211Z,21.50
2023-02-09T04:38:25.869Z,19.97
2023-02-09T04:41:12.464Z,23.57
2023-02-09T04:43:58.690Z,23.37
2023-02-09T04:46:45.801Z,22.53
2023-02-09T04:49:32.461Z,24.97
2023-02-09T04:52:19.019Z,23.03
2023-02-09T04:55:05.782Z,27.87
2023-02-09T04:58:10.809Z,24.60
2023-02-09T05:00:57.834Z,26.50
2023-02-09T05:03:44.203Z,28.27
2023-02-09T05:06:30.665Z,19.43
2023-02-09T05:09:17.009Z,22.77
2023-02-09T05:12:03.413Z,28.90
2023-02-09T05:14:49.781Z,24.27
2023-02-09T05:17:36.185Z,19.03
2023-02-09T05:20:22.818Z,24.47
2023-02-09T05:23:09.800Z,23.10
2023-02-09T05:25:56.558Z,24.90
2023-02-09T05:28:43.074Z,30.33
2023-02-09T05:31:29.941Z,25.43
2023-02-09T05:34:16.512Z,28.80
2023-02-09T05:37:03.373Z,21.67
2023-02-09T05:39:51.335Z,33.47
2023-02-09T05:42:37.569Z,27.47
2023-02-09T05:45:23.931Z,21.70
2023-02-09T05:48:10.214Z,29.90
2023-02-09T05:50:56.360Z,24.83
2023-02-09T05:53:43.020Z,31.97
2023-02-09T05:56:30.056Z,27.97
2023-02-09T05:59:16.193Z,26.97
2023-02-09T06:02:02.793Z,21.33
2023-02-09T06:04:49.268Z,24.47
2023-02-09T06:07:35.970Z,22.50
2023-02-09T06:10:22.523Z,23.27
2023-02-09T06:13:08.836Z,23.23
2023-02-09T06:15:55.108Z,27.67
2023-02-09T06:18:41.769Z,29.27
2023-02-09T06:21:28.300Z,26.70
2023-02-09T06:24:15.521Z,26.50
2023-02-09T06:27:02.131Z,27.30
2023-02-09T06:29:48.377Z,27.53
2023-02-09T06:32:34.733Z,28.73
2023-02-09T06:35:21.019Z,26.13
2023-02-09T06:38:07.377Z,27.57
2023-02-09T06:40:53.691Z,25.73
2023-02-09T06:43:39.992Z,26.77
2023-02-09T06:46:26.205Z,25.40
2023-02-09T06:49:13.014Z,29.20
2023-02-09T06:51:59.867Z,28.80
2023-02-09T06:54:46.565Z,31.07
2023-02-09T06:57:33.069Z,28.00
2023-02-09T07:00:19.585Z,32.90
2023-02-09T07:03:06.233Z,28.90
2023-02-09T07:05:52.729Z,29.80
2023-02-09T07:08:40.737Z,30.73
2023-02-09T07:11:27.255Z,30.80
2023-02-09T07:14:13.416Z,29.03
2023-02-09T07:17:00.006Z,31.73
2023-02-09T07:19:46.429Z,28.53
2023-02-09T07:22:33.589Z,30.80
2023-02-09T07:25:19.970Z,32.67
2023-02-09T07:28:06.470Z,27.33
2023-02-09T07:30:53.096Z,35.83
2023-02-09T07:33:39.777Z,32.07
2023-02-09T07:36:26.222Z,37.27
2023-02-09T07:39:12.537Z,37.80
2023-02-09T07:41:59.241Z,34.10
2023-02-09T07:45:00.028Z,32.50
2023-02-09T07:47:46.625Z,23.50
2023-02-09T07:50:33.151Z,36.27
2023-02-09T07:53:19.921Z,30.70
2023-02-09T07:56:06.426Z,28.23
2023-02-09T07:58:54.201Z,30.03
2023-02-09T08:01:40.403Z,27.07
2023-02-09T08:04:26.995Z,32.80
2023-02-09T08:07:13.666Z,28.27
2023-02-09T08:10:00.230Z,39.67
2023-02-09T08:13:03.491Z,23.50
2023-02-09T08:15:55.937Z,24.97
2023-02-09T08:18:50.760Z,33.07
2023-02-09T08:21:39.567Z,25.83
2023-02-09T08:24:25.726Z,28.13
2023-02-09T08:27:12.299Z,28.80
2023-02-09T08:29:59.521Z,32.53
2023-02-09T08:32:45.773Z,32.20
2023-02-09T08:35:32.270Z,31.13
2023-02-09T08:38:19.824Z,24.93
2023-02-09T08:41:08.275Z,32.83
2023-02-09T08:43:54.548Z,33.80
2023-02-09T08:46:41.386Z,33.47
2023-02-09T08:49:28.123Z,29.73
2023-02-09T08:52:15.596Z,30.20
2023-02-09T08:55:01.984Z,30.77
2023-02-09T08:57:48.275Z,32.53
2023-02-09T09:00:34.872Z,28.67
2023-02-09T09:03:21.157Z,28.07
2023-02-09T09:06:10.476Z,38.20
2023-02-09T09:08:56.755Z,31.97
2023-02-09T09:11:43.148Z,31.00
2023-02-09T09:14:30.053Z,34.50
2023-02-09T09:17:17.004Z,24.53
2023-02-09T09:20:04.330Z,31.20
2023-02-09T09:22:50.596Z,34.80
2023-02-09T09:25:39.202Z,30.20
2023-02-09T09:28:25.495Z,30.07
2023-02-09T09:31:16.468Z,35.17
2023-02-09T09:34:03.192Z,27.33
2023-02-09T09:36:49.813Z,25.63
2023-02-09T09:39:36.052Z,29.40
2023-02-09T09:42:44.753Z,28.47
2023-02-09T09:45:35.072Z,30.13
2023-02-09T09:48:26.939Z,27.97
2023-02-09T09:51:20.340Z,28.50
2023-02-09T09:54:20.266Z,26.57
2023-02-09T09:57:28.691Z,27.37
2023-02-09T10:00:33.624Z,24.90
2023-02-09T10:03:23.178Z,30.50
2023-02-09T10:06:21.737Z,27.97
2023-02-09T10:09:21.933Z,25.30
2023-02-09T10:12:15.768Z,26.53
2023-02-09T10:15:31.904Z,23.53
2023-02-09T10:18:25.185Z,22.93
2023-02-09T10:21:14.427Z,27.30
2023-02-09T10:24:00.546Z,29.77
2023-02-09T10:27:07.607Z,26.67
2023-02-09T10:29:54.775Z,26.40
2023-02-09T10:32:43.876Z,21.50
2023-02-09T10:35:43.333Z,20.33
2023-02-09T10:38:33.492Z,30.17
2023-02-09T10:41:22.321Z,25.47
2023-02-09T10:44:22.272Z,21.10
2023-02-09T10:47:27.265Z,17.90
2023-02-09T10:50:17.970Z,24.27
2023-02-09T10:53:21.648Z,26.73
2023-02-09T10:56:18.776Z,25.47
2023-02-09T10:59:17.919Z,23.87
2023-02-09T11:02:04.011Z,19.50
2023-02-09T11:04:50.583Z,21.43
2023-02-09T11:07:41.752Z,20.10
2023-02-09T11:10:29.975Z,21.00
2023-02-09T11:13:23.667Z,18.20
2023-02-09T11:16:25.840Z,27.37
2023-02-09T11:19:27.301Z,26.23
2023-02-09T11:22:16.860Z,20.47
2023-02-09T11:25:21.771Z,20.83
2023-02-09T11:28:40.105Z,16.13
2023-02-09T11:32:04.636Z,22.50
2023-02-09T11:35:03.194Z,22.67
2023-02-09T11:38:14.281Z,25.27
2023-02-09T11:41:24.351Z,23.27
2023-02-09T11:44:19.227Z,21.87
2023-02-09T11:47:10.824Z,19.03
2023-02-09T11:50:01.864Z,24.43
2023-02-09T11:52:53.936Z,27.50
2023-02-09T11:55:48.806Z,25.27
2023-02-09T11:58:46.897Z,26.07
2023-02-09T12:01:57.059Z,26.40
2023-02-09T12:05:00.519Z,26.20
2023-02-09T12:08:22.194Z,19.13
2023-02-09T12:11:14.246Z,22.90
2023-02-09T12:14:15.810Z,21.30
2023-02-09T12:17:19.067Z,22.50
2023-02-09T12:20:19.912Z,26.87
2023-02-09T12:23:24.538Z,22.33
2023-02-09T12:26:17.094Z,22.07
2023-02-09T12:29:38.114Z,20.40
2023-02-09T12:32:41.080Z,23.67
2023-02-09T12:35:38.476Z,23.67
2023-02-09T12:38:25.394Z,30.57
2023-02-09T12:41:15.239Z,22.27
2023-02-09T12:44:09.125Z,24.27
2023-02-09T12:46:57.858Z,20.20
2023-02-09T12:49:45.012Z,17.23
2023-02-09T12:52:31.388Z,21.53
2023-02-09T12:55:22.889Z,19.90
2023-02-09T12:58:51.216Z,15.57
2023-02-09T13:02:08.228Z,26.87
2023-02-09T13:05:22.863Z,19.70
2023-02-09T13:08:13.242Z,22.57
2023-02-09T13:11:20.174Z,22.20
2023-02-09T13:14:09.588Z,23.93
2023-02-09T13:16:59.019Z,21.03
2023-02-09T13:20:07.351Z,19.43
2023-02-09T13:23:40.035Z,20.73
2023-02-09T13:26:30.606Z,23.70
2023-02-09T13:29:22.105Z,17.53
2023-02-09T13:32:26.020Z,19.37
2023-02-09T13:35:23.421Z,19.97
2023-02-09T13:38:19.082Z,20.53
2023-02-09T13:41:07.500Z,26.60
2023-02-09T13:43:54.074Z,20.90
2023-02-09T13:46:40.335Z,20.53
2023-02-09T13:49:29.412Z,19.57
2023-02-09T13:52:20.958Z,18.93
2023-02-09T13:55:26.399Z,19.60
2023-02-09T13:58:30.226Z,22.90
2023-02-09T14:01:25.369Z,19.47
2023-02-09T14:04:14.490Z,17.77
2023-02-09T14:07:08.869Z,18.97
2023-02-09T14:10:06.688Z,18.60
2023-02-09T14:12:59.957Z,18.00
2023-02-09T14:16:08.405Z,18.97
2023-02-09T14:18:59.806Z,18.13
2023-02-09T14:21:46.617Z,21.83
2023-02-09T14:24:44.089Z,17.10
2023-02-09T14:27:39.150Z,19.70
2023-02-09T14:30:32.621Z,23.40
2023-02-09T14:33:28.673Z,22.40
2023-02-09T14:36:51.413Z,16.50
2023-02-09T14:40:01.291Z,18.03
2023-02-09T14:43:01.828Z,21.57
2023-02-09T14:45:57.443Z,20.73
2023-02-09T14:48:43.708Z,19.43
2023-02-09T14:51:30.245Z,25.17
2023-02-09T14:54:28.046Z,22.40
2023-02-09T14:57:14.877Z,19.43
2023-02-09T15:00:01.496Z,18.90
2023-02-09T15:02:50.109Z,22.70
2023-02-09T15:05:36.476Z,22.23
2023-02-09T15:08:26.782Z,18.70
2023-02-09T15:11:42.705Z,13.40
2023-02-09T15:14:29.131Z,17.43
2023-02-09T15:17:21.726Z,17.97
2023-02-09T15:20:08.615Z,16.90
2023-02-09T15:22:55.618Z,17.30
2023-02-09T15:25:42.272Z,19.57
2023-02-09T15:28:29.974Z,18.67
2023-02-09T15:31:16.710Z,16.13
2023-02-09T15:34:04.555Z,13.67
2023-02-09T15:36:50.912Z,17.33
2023-02-09T15:39:37.224Z,22.30
2023-02-09T15:42:42.272Z,18.53
2023-02-09T15:45:48.034Z,13.83
2023-02-09T15:48:34.136Z,23.20
2023-02-09T15:51:22.673Z,21.63
2023-02-09T15:54:17.876Z,29.33
2023-02-09T15:57:04.117Z,20.20
2023-02-09T15:59:51.640Z,24.93
2023-02-09T16:02:37.975Z,20.90
2023-02-09T16:05:27.149Z,21.23
2023-02-09T16:08:21.292Z,23.93
2023-02-09T16:11:16.470Z,20.33
2023-02-09T16:14:02.839Z,21.10
2023-02-09T16:16:49.677Z,16.37
2023-02-09T16:19:36.253Z,22.17
2023-02-09T16:22:25.065Z,23.30
2023-02-09T16:25:21.616Z,22.30
2023-02-09T16:28:12.284Z,17.00
2023-02-09T16:30:58.601Z,21.87
2023-02-09T16:33:45.057Z,23.23
2023-02-09T16:36:32.012Z,22.27
2023-02-09T16:39:20.688Z,17.97
2023-02-09T16:42:14.927Z,21.27
2023-02-09T16:45:01.899Z,21.10
2023-02-09T16:47:51.449Z,20.80
2023-02-09T16:50:42.046Z,18.33
2023-02-09T16:53:32.693Z,25.90
2023-02-09T16:56:20.188Z,18.97
2023-02-09T16:59:06.402Z,16.70
2023-02-09T17:01:52.894Z,20.87
2023-02-09T17:04:40.196Z,25.20
2023-02-09T17:07:45.452Z,26.33
2023-02-09T17:10:39.783Z,19.27
2023-02-09T17:13:26.220Z,21.17
2023-02-09T17:16:33.471Z,18.23
2023-02-09T17:19:20.467Z,24.17
2023-02-09T17:22:11.588Z,20.30
2023-02-09T17:24:58.069Z,17.83
2023-02-09T17:27:45.199Z,24.23
2023-02-09T17:30:33.568Z,20.80
2023-02-09T17:33:25.793Z,21.73
2023-02-09T17:36:29.084Z,25.27
2023-02-09T17:39:18.647Z,20.03
2023-02-09T17:42:05.108Z,23.00
2023-02-09T17:44:51.414Z,22.27
2023-02-09T17:47:39.409Z,23.23
2023-02-09T17:50:26.136Z,27.97
2023-02-09T17:53:16.234Z,24.80
2023-02-09T17:56:02.770Z,27.93
2023-02-09T17:58:49.038Z,28.50
2023-02-09T18:01:40.018Z,26.20
2023-02-09T18:04:28.538Z,29.67
2023-02-09T18:07:20.252Z,32.73
2023-02-09T18:10:07.350Z,29.50
2023-02-09T18:12:56.424Z,25.90
2023-02-09T18:15:44.662Z,26.83
2023-02-09T18:18:31.048Z,28.53
2023-02-09T18:21:17.460Z,26.13
2023-02-09T18:24:04.157Z,23.90
2023-02-09T18:26:51.029Z,25.07
2023-02-09T18:29:37.633Z,26.10
2023-02-09T18:32:24.076Z,23.90
2023-02-09T18:35:23.121Z,23.27
2023-02-09T18:38:11.947Z,26.63
2023-02-09T18:40:58.370Z,24.13
2023-02-09T18:43:44.690Z,30.57
2023-02-09T18:46:31.070Z,25.47
2023-02-09T18:49:17.533Z,25.80
2023-02-09T18:52:04.984Z,28.60
2023-02-09T18:54:51.897Z,25.83
2023-02-09T18:57:38.211Z,22.53
2023-02-09T19:00:25.530Z,26.70
2023-02-09T19:03:13.688Z,30.63
2023-02-09T19:05:59.966Z,28.70
2023-02-09T19:08:46.640Z,38.70
2023-02-09T19:11:33.096Z,36.57
2023-02-09T19:14:37.652Z,37.83
2023-02-09T19:17:23.644Z,33.43
2023-02-09T19:20:16.986Z,29.70
2023-02-09T19:23:03.892Z,34.53
2023-02-09T19:26:00.754Z,26.80
2023-02-09T19:28:48.157Z,32.90
2023-02-09T19:31:34.437Z,37.23
2023-02-09T19:34:20.700Z,32.60
2023-02-09T19:37:08.020Z,32.80
2023-02-09T19:40:00.452Z,33.10
2023-02-09T19:42:48.336Z,35.03
2023-02-09T19:45:37.803Z,34.93
2023-02-09T19:48:24.327Z,32.13
2023-02-09T19:51:10.600Z,29.70
2023-02-09T19:53:56.954Z,31.87
2023-02-09T19:56:45.159Z,31.07
2023-02-09T19:59:32.407Z,31.97
2023-02-09T20:02:18.670Z,26.23
2023-02-09T20:05:05.300Z,26.30
2023-02-09T20:07:53.652Z,29.80
2023-02-09T20:10:40.575Z,27.27
2023-02-09T20:13:27.282Z,26.13
2023-02-09T20:16:18.487Z,25.37
2023-02-09T20:19:04.913Z,33.47
2023-02-09T20:21:51.404Z,26.20
2023-02-09T20:24:37.705Z,27.57
2023-02-09T20:27:23.988Z,34.20
2023-02-09T20:30:10.840Z,37.57
2023-02-09T20:32:57.054Z,36.80
2023-02-09T20:35:45.433Z,42.97
2023-02-09T20:38:32.824Z,37.00
2023-02-09T20:41:19.031Z,34.57
2023-02-09T20:44:23.855Z,32.57
2023-02-09T20:47:10.247Z,34.50
2023-02-09T20:49:59.610Z,30.80
2023-02-09T20:52:46.493Z,29.60
2023-02-09T20:55:32.748Z,32.67
2023-02-09T20:58:19.296Z,33.60
2023-02-09T21:01:06.115Z,31.20
2023-02-09T21:03:57.317Z,31.63
2023-02-09T21:06:44.477Z,36.37
2023-02-09T21:09:30.637Z,33.07
2023-02-09T21:12:17.033Z,32.30
2023-02-09T21:15:03.645Z,28.17
2023-02-09T21:17:51.658Z,33.33
2023-02-09T21:20:38.515Z,27.53
2023-02-09T21:23:24.733Z,29.53
2023-02-09T21:26:14.602Z,32.87
2023-02-09T21:29:01.029Z,33.40
2023-02-09T21:31:47.645Z,29.10
2023-02-09T21:34:34.198Z,35.43
2023-02-09T21:37:22.837Z,35.03
2023-02-09T21:40:11.280Z,31.73
2023-02-09T21:42:57.580Z,29.70
2023-02-09T21:45:44.128Z,37.13
2023-02-09T21:48:30.374Z,36.47
2023-02-09T21:51:16.954Z,34.13
2023-02-09T21:54:03.367Z,34.93
2023-02-09T21:56:49.736Z,34.90
2023-02-09T21:59:36.225Z,33.10
2023-02-09T22:02:22.721Z,34.80
2023-02-09T22:05:09.772Z,33.50
2023-02-09T22:07:56.124Z,29.47
2023-02-09T22:10:42.507Z,34.70
2023-02-09T22:13:30.551Z,38.07
2023-02-09T22:16:19.780Z,33.27
2023-02-09T22:19:06.394Z,41.57
2023-02-09T22:21:52.736Z,37.27
2023-02-09T22:24:39.221Z,33.90
2023-02-09T22:27:26.454Z,34.30
2023-02-09T22:30:12.951Z,31.57
2023-02-09T22:32:59.345Z,33.13
2023-02-09T22:35:45.817Z,32.90
2023-02-09T22:38:33.141Z,32.43
2023-02-09T22:41:22.086Z,33.53
2023-02-09T22:44:11.766Z,35.20
2023-02-09T22:46:58.326Z,35.73
2023-02-09T22:49:46.666Z,34.80
2023-02-09T22:52:33.319Z,28.33
2023-02-09T22:55:19.690Z,33.13
2023-02-09T22:58:06.030Z,30.40
2023-02-09T23:00:54.890Z,34.50
2023-02-09T23:03:41.324Z,28.10
2023-02-09T23:06:29.968Z,38.70
2023-02-09T23:09:16.756Z,33.23
2023-02-09T23:12:03.475Z,25.87
2023-02-09T23:14:49.703Z,31.43
2023-02-09T23:17:36.154Z,34.67
2023-02-09T23:20:22.342Z,32.43
2023-02-09T23:23:11.292Z,38.70
2023-02-09T23:25:58.032Z,32.77
2023-02-09T23:28:45.194Z,36.50
2023-02-09T23:31:31.977Z,33.70
2023-02-09T23:34:21.627Z,30.60
2023-02-09T23:37:18.145Z,33.43
2023-02-09T23:40:10.524Z,35.13
2023-02-09T23:42:56.859Z,30.80
2023-02-09T23:45:43.206Z,38.07
2023-02-09T23:48:29.856Z,34.77
2023-02-09T23:51:22.118Z,36.40
2023-02-09T23:54:10.315Z,38.00
2023-02-09T23:56:56.934Z,33.60
2023-02-09T23:59:43.427Z,35.40
